sensor_id;sensor_type;location;lat;lon;timestamp;P1;durP1;ratioP1;P2;durP2;ratioP2
19087;SDS011;9676;50.916;13.352;2023-03-25T00:00:58;10.20;;;9.20;;
19087;SDS011;9676;50.916;13.352;2023-03-25T00:03:50;9.60;;;8.90;;
19087;SDS011;9676;50.916;13.352;2023-03-25T00:06:39;10.23;;;9.30;;
19087;SDS011;9676;50.916;13.352;2023-03-25T00:09:29;9.90;;;9.07;;
19087;SDS011;9676;50.916;13.352;2023-03-25T00:12:18;11.83;;;9.10;;
19087;SDS011;9676;50.916;13.352;2023-03-25T00:15:08;10.67;;;9.00;;
19087;SDS011;9676;50.916;13.352;2023-03-25T00:17:59;9.73;;;8.80;;
19087;SDS011;9676;50.916;13.352;2023-03-25T00:20:50;9.93;;;9.03;;
19087;SDS011;9676;50.916;13.352;2023-03-25T00:23:40;9.80;;;9.00;;
19087;SDS011;9676;50.916;13.352;2023-03-25T00:26:30;9.70;;;9.00;;
19087;SDS011;9676;50.916;13.352;2023-03-25T00:29:20;9.83;;;9.03;;
19087;SDS011;9676;50.916;13.352;2023-03-25T00:32:09;9.63;;;8.83;;
19087;SDS011;9676;50.916;13.352;2023-03-25T00:34:59;9.63;;;8.90;;
19087;SDS011;9676;50.916;13.352;2023-03-25T00:37:51;9.67;;;8.90;;
19087;SDS011;9676;50.916;13.352;2023-03-25T00:40:46;10.03;;;9.10;;
19087;SDS011;9676;50.916;13.352;2023-03-25T00:43:35;10.00;;;9.00;;
19087;SDS011;9676;50.916;13.352;2023-03-25T00:46:26;11.87;;;9.03;;
19087;SDS011;9676;50.916;13.352;2023-03-25T00:49:17;10.00;;;9.13;;
19087;SDS011;9676;50.916;13.352;2023-03-25T00:52:11;9.70;;;8.90;;
19087;SDS011;9676;50.916;13.352;2023-03-25T00:55:02;9.80;;;9.00;;
19087;SDS011;9676;50.916;13.352;2023-03-25T00:57:53;9.93;;;9.13;;
19087;SDS011;9676;50.916;13.352;2023-03-25T01:00:42;10.33;;;9.17;;
19087;SDS011;9676;50.916;13.352;2023-03-25T01:03:31;10.17;;;9.27;;
19087;SDS011;9676;50.916;13.352;2023-03-25T01:06:24;10.20;;;9.30;;
19087;SDS011;9676;50.916;13.352;2023-03-25T01:09:16;10.27;;;9.27;;
19087;SDS011;9676;50.916;13.352;2023-03-25T01:12:08;10.20;;;9.20;;
19087;SDS011;9676;50.916;13.352;2023-03-25T01:14:59;10.37;;;9.17;;
19087;SDS011;9676;50.916;13.352;2023-03-25T01:17:48;10.13;;;9.33;;
19087;SDS011;9676;50.916;13.352;2023-03-25T01:20:37;9.70;;;8.90;;
19087;SDS011;9676;50.916;13.352;2023-03-25T01:23:27;9.90;;;9.10;;
19087;SDS011;9676;50.916;13.352;2023-03-25T01:26:17;9.93;;;9.13;;
19087;SDS011;9676;50.916;13.352;2023-03-25T01:29:08;10.40;;;9.50;;
19087;SDS011;9676;50.916;13.352;2023-03-25T01:31:57;9.83;;;9.00;;
19087;SDS011;9676;50.916;13.352;2023-03-25T01:34:47;10.17;;;9.30;;
19087;SDS011;9676;50.916;13.352;2023-03-25T01:37:36;9.60;;;8.80;;
19087;SDS011;9676;50.916;13.352;2023-03-25T01:40:26;10.10;;;9.10;;
19087;SDS011;9676;50.916;13.352;2023-03-25T01:43:16;9.50;;;8.80;;
19087;SDS011;9676;50.916;13.352;2023-03-25T01:46:08;9.80;;;8.97;;
19087;SDS011;9676;50.916;13.352;2023-03-25T01:49:02;9.50;;;8.80;;
19087;SDS011;9676;50.916;13.352;2023-03-25T01:51:56;9.60;;;8.90;;
19087;SDS011;9676;50.916;13.352;2023-03-25T01:54:51;9.97;;;9.20;;
19087;SDS011;9676;50.916;13.352;2023-03-25T01:57:42;9.53;;;8.83;;
19087;SDS011;9676;50.916;13.352;2023-03-25T02:00:32;9.70;;;8.90;;
19087;SDS011;9676;50.916;13.352;2023-03-25T02:03:23;9.10;;;8.50;;
19087;SDS011;9676;50.916;13.352;2023-03-25T02:06:13;9.73;;;8.87;;
19087;SDS011;9676;50.916;13.352;2023-03-25T02:09:09;9.60;;;8.70;;
19087;SDS011;9676;50.916;13.352;2023-03-25T02:12:02;9.17;;;8.47;;
19087;SDS011;9676;50.916;13.352;2023-03-25T02:14:52;9.70;;;8.90;;
19087;SDS011;9676;50.916;13.352;2023-03-25T02:28:13;10.00;;;9.10;;
19087;SDS011;9676;50.916;13.352;2023-03-25T02:31:16;9.70;;;8.90;;
19087;SDS011;9676;50.916;13.352;2023-03-25T02:34:36;9.50;;;8.70;;
19087;SDS011;9676;50.916;13.352;2023-03-25T02:41:16;9.77;;;8.80;;
19087;SDS011;9676;50.916;13.352;2023-03-25T02:44:17;9.30;;;8.60;;
19087;SDS011;9676;50.916;13.352;2023-03-25T02:47:14;9.37;;;8.67;;
19087;SDS011;9676;50.916;13.352;2023-03-25T02:50:09;9.90;;;9.00;;
19087;SDS011;9676;50.916;13.352;2023-03-25T02:53:03;9.60;;;8.80;;
19087;SDS011;9676;50.916;13.352;2023-03-25T02:56:01;9.73;;;8.83;;
19087;SDS011;9676;50.916;13.352;2023-03-25T02:58:55;9.10;;;8.50;;
19087;SDS011;9676;50.916;13.352;2023-03-25T03:01:45;9.67;;;8.93;;
19087;SDS011;9676;50.916;13.352;2023-03-25T03:04:46;9.50;;;8.80;;
19087;SDS011;9676;50.916;13.352;2023-03-25T03:07:38;9.33;;;8.63;;
19087;SDS011;9676;50.916;13.352;2023-03-25T03:10:35;9.10;;;8.50;;
19087;SDS011;9676;50.916;13.352;2023-03-25T03:13:38;9.40;;;8.60;;
19087;SDS011;9676;50.916;13.352;2023-03-25T03:16:57;9.20;;;8.50;;
19087;SDS011;9676;50.916;13.352;2023-03-25T03:19:55;9.10;;;8.40;;
19087;SDS011;9676;50.916;13.352;2023-03-25T03:22:49;9.43;;;8.70;;
19087;SDS011;9676;50.916;13.352;2023-03-25T03:25:49;9.10;;;8.40;;
19087;SDS011;9676;50.916;13.352;2023-03-25T03:28:42;9.50;;;8.60;;
19087;SDS011;9676;50.916;13.352;2023-03-25T03:31:37;9.00;;;8.40;;
19087;SDS011;9676;50.916;13.352;2023-03-25T03:34:52;9.30;;;8.60;;
19087;SDS011;9676;50.916;13.352;2023-03-25T03:37:46;9.30;;;8.50;;
19087;SDS011;9676;50.916;13.352;2023-03-25T03:40:40;9.60;;;8.70;;
19087;SDS011;9676;50.916;13.352;2023-03-25T03:43:34;9.23;;;8.53;;
19087;SDS011;9676;50.916;13.352;2023-03-25T03:46:31;9.03;;;8.40;;
19087;SDS011;9676;50.916;13.352;2023-03-25T03:49:26;9.30;;;8.60;;
19087;SDS011;9676;50.916;13.352;2023-03-25T03:52:22;8.97;;;8.27;;
19087;SDS011;9676;50.916;13.352;2023-03-25T03:55:19;9.30;;;8.50;;
19087;SDS011;9676;50.916;13.352;2023-03-25T03:58:11;8.93;;;8.33;;
19087;SDS011;9676;50.916;13.352;2023-03-25T04:01:09;9.40;;;8.63;;
19087;SDS011;9676;50.916;13.352;2023-03-25T04:04:03;9.00;;;8.40;;
19087;SDS011;9676;50.916;13.352;2023-03-25T04:06:55;9.13;;;8.53;;
19087;SDS011;9676;50.916;13.352;2023-03-25T04:09:52;9.00;;;8.37;;
19087;SDS011;9676;50.916;13.352;2023-03-25T04:12:45;9.10;;;8.50;;
19087;SDS011;9676;50.916;13.352;2023-03-25T04:15:37;9.30;;;8.60;;
19087;SDS011;9676;50.916;13.352;2023-03-25T04:18:27;9.00;;;8.40;;
19087;SDS011;9676;50.916;13.352;2023-03-25T04:21:21;9.30;;;8.60;;
19087;SDS011;9676;50.916;13.352;2023-03-25T04:24:11;8.87;;;8.20;;
19087;SDS011;9676;50.916;13.352;2023-03-25T04:27:03;9.33;;;8.63;;
19087;SDS011;9676;50.916;13.352;2023-03-25T04:29:52;9.13;;;8.53;;
19087;SDS011;9676;50.916;13.352;2023-03-25T04:32:44;8.90;;;8.30;;
19087;SDS011;9676;50.916;13.352;2023-03-25T04:35:34;9.00;;;8.40;;
19087;SDS011;9676;50.916;13.352;2023-03-25T04:38:25;9.00;;;8.30;;
19087;SDS011;9676;50.916;13.352;2023-03-25T04:41:14;8.87;;;8.30;;
19087;SDS011;9676;50.916;13.352;2023-03-25T04:44:04;9.00;;;8.40;;
19087;SDS011;9676;50.916;13.352;2023-03-25T04:46:54;9.07;;;8.47;;
19087;SDS011;9676;50.916;13.352;2023-03-25T04:49:44;9.33;;;8.60;;
19087;SDS011;9676;50.916;13.352;2023-03-25T04:52:34;9.00;;;8.40;;
19087;SDS011;9676;50.916;13.352;2023-03-25T04:55:25;8.90;;;8.30;;
19087;SDS011;9676;50.916;13.352;2023-03-25T04:58:16;8.93;;;8.23;;
19087;SDS011;9676;50.916;13.352;2023-03-25T05:01:05;8.70;;;8.20;;
19087;SDS011;9676;50.916;13.352;2023-03-25T05:03:58;8.63;;;8.10;;
19087;SDS011;9676;50.916;13.352;2023-03-25T05:06:52;9.00;;;8.20;;
19087;SDS011;9676;50.916;13.352;2023-03-25T05:09:43;8.80;;;8.30;;
19087;SDS011;9676;50.916;13.352;2023-03-25T05:12:33;8.60;;;8.10;;
19087;SDS011;9676;50.916;13.352;2023-03-25T05:15:23;8.90;;;8.30;;
19087;SDS011;9676;50.916;13.352;2023-03-25T05:18:13;8.80;;;8.30;;
19087;SDS011;9676;50.916;13.352;2023-03-25T05:21:04;8.60;;;8.10;;
19087;SDS011;9676;50.916;13.352;2023-03-25T05:23:55;8.77;;;8.27;;
19087;SDS011;9676;50.916;13.352;2023-03-25T05:26:44;8.90;;;8.20;;
19087;SDS011;9676;50.916;13.352;2023-03-25T05:29:35;8.90;;;8.30;;
19087;SDS011;9676;50.916;13.352;2023-03-25T05:32:25;9.30;;;8.60;;
19087;SDS011;9676;50.916;13.352;2023-03-25T05:35:19;8.70;;;8.20;;
19087;SDS011;9676;50.916;13.352;2023-03-25T05:38:09;8.90;;;8.30;;
19087;SDS011;9676;50.916;13.352;2023-03-25T05:40:59;9.00;;;8.40;;
19087;SDS011;9676;50.916;13.352;2023-03-25T05:43:49;9.00;;;8.40;;
19087;SDS011;9676;50.916;13.352;2023-03-25T05:46:39;8.80;;;8.30;;
19087;SDS011;9676;50.916;13.352;2023-03-25T05:49:29;9.37;;;8.73;;
19087;SDS011;9676;50.916;13.352;2023-03-25T05:52:18;9.00;;;8.40;;
19087;SDS011;9676;50.916;13.352;2023-03-25T05:55:11;8.73;;;8.20;;
19087;SDS011;9676;50.916;13.352;2023-03-25T05:58:07;9.23;;;8.50;;
19087;SDS011;9676;50.916;13.352;2023-03-25T06:00:56;9.00;;;8.40;;
19087;SDS011;9676;50.916;13.352;2023-03-25T06:03:50;8.90;;;8.30;;
19087;SDS011;9676;50.916;13.352;2023-03-25T06:06:40;8.60;;;8.00;;
19087;SDS011;9676;50.916;13.352;2023-03-25T06:09:29;9.10;;;8.50;;
19087;SDS011;9676;50.916;13.352;2023-03-25T06:12:21;8.97;;;8.27;;
19087;SDS011;9676;50.916;13.352;2023-03-25T06:15:14;9.10;;;8.40;;
19087;SDS011;9676;50.916;13.352;2023-03-25T06:18:07;9.10;;;8.40;;
19087;SDS011;9676;50.916;13.352;2023-03-25T06:20:58;9.33;;;8.53;;
19087;SDS011;9676;50.916;13.352;2023-03-25T06:23:48;9.20;;;8.50;;
19087;SDS011;9676;50.916;13.352;2023-03-25T06:26:37;8.83;;;8.17;;
19087;SDS011;9676;50.916;13.352;2023-03-25T06:29:26;9.33;;;8.43;;
19087;SDS011;9676;50.916;13.352;2023-03-25T06:32:16;8.77;;;8.03;;
19087;SDS011;9676;50.916;13.352;2023-03-25T06:35:06;8.80;;;8.10;;
19087;SDS011;9676;50.916;13.352;2023-03-25T06:37:59;8.73;;;7.93;;
19087;SDS011;9676;50.916;13.352;2023-03-25T06:40:56;9.17;;;8.33;;
19087;SDS011;9676;50.916;13.352;2023-03-25T06:43:46;8.80;;;8.10;;
19087;SDS011;9676;50.916;13.352;2023-03-25T06:47:02;8.87;;;8.03;;
19087;SDS011;9676;50.916;13.352;2023-03-25T06:50:04;8.93;;;8.13;;
19087;SDS011;9676;50.916;13.352;2023-03-25T06:52:54;8.57;;;7.87;;
19087;SDS011;9676;50.916;13.352;2023-03-25T06:55:45;8.77;;;7.97;;
19087;SDS011;9676;50.916;13.352;2023-03-25T06:58:35;9.00;;;8.20;;
19087;SDS011;9676;50.916;13.352;2023-03-25T07:01:25;8.87;;;8.10;;
19087;SDS011;9676;50.916;13.352;2023-03-25T07:04:14;8.60;;;7.90;;
19087;SDS011;9676;50.916;13.352;2023-03-25T07:07:06;8.60;;;7.90;;
19087;SDS011;9676;50.916;13.352;2023-03-25T07:09:55;9.07;;;8.20;;
19087;SDS011;9676;50.916;13.352;2023-03-25T07:12:46;8.80;;;8.10;;
19087;SDS011;9676;50.916;13.352;2023-03-25T07:15:36;9.00;;;8.20;;
19087;SDS011;9676;50.916;13.352;2023-03-25T07:18:25;8.57;;;7.87;;
19087;SDS011;9676;50.916;13.352;2023-03-25T07:21:15;8.80;;;8.00;;
19087;SDS011;9676;50.916;13.352;2023-03-25T07:24:05;8.90;;;8.10;;
19087;SDS011;9676;50.916;13.352;2023-03-25T07:26:55;8.90;;;8.20;;
19087;SDS011;9676;50.916;13.352;2023-03-25T07:29:47;9.10;;;8.30;;
19087;SDS011;9676;50.916;13.352;2023-03-25T07:32:37;9.00;;;8.30;;
19087;SDS011;9676;50.916;13.352;2023-03-25T07:35:26;8.90;;;8.30;;
19087;SDS011;9676;50.916;13.352;2023-03-25T07:38:16;9.00;;;8.30;;
19087;SDS011;9676;50.916;13.352;2023-03-25T07:41:06;9.20;;;8.40;;
19087;SDS011;9676;50.916;13.352;2023-03-25T07:44:00;8.90;;;8.30;;
19087;SDS011;9676;50.916;13.352;2023-03-25T07:46:53;9.10;;;8.40;;
19087;SDS011;9676;50.916;13.352;2023-03-25T07:49:43;8.80;;;8.20;;
19087;SDS011;9676;50.916;13.352;2023-03-25T07:52:33;9.40;;;8.60;;
19087;SDS011;9676;50.916;13.352;2023-03-25T07:55:23;9.10;;;8.40;;
19087;SDS011;9676;50.916;13.352;2023-03-25T07:58:12;8.87;;;8.20;;
19087;SDS011;9676;50.916;13.352;2023-03-25T08:01:02;9.30;;;8.40;;
19087;SDS011;9676;50.916;13.352;2023-03-25T08:03:53;9.30;;;8.53;;
19087;SDS011;9676;50.916;13.352;2023-03-25T08:06:43;9.10;;;8.40;;
19087;SDS011;9676;50.916;13.352;2023-03-25T08:09:32;9.03;;;8.33;;
19087;SDS011;9676;50.916;13.352;2023-03-25T08:12:22;8.80;;;8.20;;
19087;SDS011;9676;50.916;13.352;2023-03-25T08:15:12;9.00;;;8.40;;
19087;SDS011;9676;50.916;13.352;2023-03-25T08:18:03;9.20;;;8.50;;
19087;SDS011;9676;50.916;13.352;2023-03-25T08:20:55;9.00;;;8.40;;
19087;SDS011;9676;50.916;13.352;2023-03-25T08:23:44;8.90;;;8.30;;
19087;SDS011;9676;50.916;13.352;2023-03-25T08:26:34;7.90;;;7.30;;
19087;SDS011;9676;50.916;13.352;2023-03-25T08:29:23;8.90;;;8.30;;
19087;SDS011;9676;50.916;13.352;2023-03-25T08:32:13;8.90;;;8.30;;
19087;SDS011;9676;50.916;13.352;2023-03-25T08:35:03;9.00;;;8.40;;
19087;SDS011;9676;50.916;13.352;2023-03-25T08:37:55;9.00;;;8.40;;
19087;SDS011;9676;50.916;13.352;2023-03-25T08:40:47;9.30;;;8.60;;
19087;SDS011;9676;50.916;13.352;2023-03-25T08:43:37;9.03;;;8.43;;
19087;SDS011;9676;50.916;13.352;2023-03-25T08:46:26;8.90;;;8.30;;
19087;SDS011;9676;50.916;13.352;2023-03-25T08:49:15;9.20;;;8.50;;
19087;SDS011;9676;50.916;13.352;2023-03-25T08:52:05;9.10;;;8.50;;
19087;SDS011;9676;50.916;13.352;2023-03-25T08:54:57;9.10;;;8.40;;
19087;SDS011;9676;50.916;13.352;2023-03-25T08:57:47;9.10;;;8.50;;
19087;SDS011;9676;50.916;13.352;2023-03-25T09:00:36;9.00;;;8.40;;
19087;SDS011;9676;50.916;13.352;2023-03-25T09:03:26;9.50;;;8.70;;
19087;SDS011;9676;50.916;13.352;2023-03-25T09:06:16;9.13;;;8.50;;
19087;SDS011;9676;50.916;13.352;2023-03-25T09:09:05;9.00;;;8.40;;
19087;SDS011;9676;50.916;13.352;2023-03-25T09:11:58;9.20;;;8.60;;
19087;SDS011;9676;50.916;13.352;2023-03-25T09:14:47;8.90;;;8.30;;
19087;SDS011;9676;50.916;13.352;2023-03-25T09:17:37;8.90;;;8.30;;
19087;SDS011;9676;50.916;13.352;2023-03-25T09:20:27;9.20;;;8.50;;
19087;SDS011;9676;50.916;13.352;2023-03-25T09:23:17;9.10;;;8.50;;
19087;SDS011;9676;50.916;13.352;2023-03-25T09:26:06;9.53;;;8.67;;
19087;SDS011;9676;50.916;13.352;2023-03-25T09:28:57;9.27;;;8.57;;
19087;SDS011;9676;50.916;13.352;2023-03-25T09:31:47;9.37;;;8.60;;
19087;SDS011;9676;50.916;13.352;2023-03-25T09:34:36;9.30;;;8.60;;
19087;SDS011;9676;50.916;13.352;2023-03-25T09:37:26;9.10;;;8.40;;
19087;SDS011;9676;50.916;13.352;2023-03-25T09:40:16;9.10;;;8.40;;
19087;SDS011;9676;50.916;13.352;2023-03-25T09:43:14;9.10;;;8.40;;
19087;SDS011;9676;50.916;13.352;2023-03-25T09:46:18;9.03;;;8.30;;
19087;SDS011;9676;50.916;13.352;2023-03-25T09:49:09;8.97;;;8.37;;
19087;SDS011;9676;50.916;13.352;2023-03-25T09:52:06;8.80;;;8.10;;
19087;SDS011;9676;50.916;13.352;2023-03-25T09:55:05;8.80;;;8.20;;
19087;SDS011;9676;50.916;13.352;2023-03-25T09:58:04;8.80;;;;;
19087;SDS011;9676;50.916;13.352;2023-03-25T10:01:16;9.00;;;8.30;;
19087;SDS011;9676;50.916;13.352;2023-03-25T10:04:22;9.00;;;8.30;;
19087;SDS011;9676;50.916;13.352;2023-03-25T10:07:34;8.80;;;8.13;;
19087;SDS011;9676;50.916;13.352;2023-03-25T10:10:42;8.97;;;8.30;;
19087;SDS011;9676;50.916;13.352;2023-03-25T10:13:39;8.80;;;8.10;;
19087;SDS011;9676;50.916;13.352;2023-03-25T10:16:38;8.83;;;8.23;;
19087;SDS011;9676;50.916;13.352;2023-03-25T10:19:50;9.20;;;8.40;;
19087;SDS011;9676;50.916;13.352;2023-03-25T10:22:55;8.80;;;8.10;;
19087;SDS011;9676;50.916;13.352;2023-03-25T10:25:53;8.60;;;8.03;;
19087;SDS011;9676;50.916;13.352;2023-03-25T10:28:47;9.00;;;8.33;;
19087;SDS011;9676;50.916;13.352;2023-03-25T10:31:45;8.60;;;8.00;;
19087;SDS011;9676;50.916;13.352;2023-03-25T10:34:41;8.80;;;8.10;;
19087;SDS011;9676;50.916;13.352;2023-03-25T10:37:36;8.90;;;8.20;;
19087;SDS011;9676;50.916;13.352;2023-03-25T10:40:30;8.87;;;8.20;;
19087;SDS011;9676;50.916;13.352;2023-03-25T10:43:23;8.87;;;8.27;;
19087;SDS011;9676;50.916;13.352;2023-03-25T10:46:17;9.00;;;8.30;;
19087;SDS011;9676;50.916;13.352;2023-03-25T10:49:16;8.57;;;7.97;;
19087;SDS011;9676;50.916;13.352;2023-03-25T10:52:08;8.90;;;8.20;;
19087;SDS011;9676;50.916;13.352;2023-03-25T10:54:58;9.20;;;8.23;;
19087;SDS011;9676;50.916;13.352;2023-03-25T10:57:47;8.50;;;7.80;;
19087;SDS011;9676;50.916;13.352;2023-03-25T11:00:38;8.90;;;8.10;;
19087;SDS011;9676;50.916;13.352;2023-03-25T11:03:28;9.00;;;8.20;;
19087;SDS011;9676;50.916;13.352;2023-03-25T11:06:25;9.40;;;8.50;;
19087;SDS011;9676;50.916;13.352;2023-03-25T11:09:21;8.80;;;8.10;;
19087;SDS011;9676;50.916;13.352;2023-03-25T11:12:12;8.70;;;8.00;;
19087;SDS011;9676;50.916;13.352;2023-03-25T11:15:17;8.87;;;8.17;;
19087;SDS011;9676;50.916;13.352;2023-03-25T11:18:19;8.60;;;8.00;;
19087;SDS011;9676;50.916;13.352;2023-03-25T11:21:12;8.70;;;8.10;;
19087;SDS011;9676;50.916;13.352;2023-03-25T11:24:04;9.00;;;8.20;;
19087;SDS011;9676;50.916;13.352;2023-03-25T11:26:54;8.90;;;8.20;;
19087;SDS011;9676;50.916;13.352;2023-03-25T11:29:48;9.00;;;8.30;;
19087;SDS011;9676;50.916;13.352;2023-03-25T11:32:41;8.67;;;8.07;;
19087;SDS011;9676;50.916;13.352;2023-03-25T11:35:36;9.00;;;8.30;;
19087;SDS011;9676;50.916;13.352;2023-03-25T11:38:30;8.83;;;8.23;;
19087;SDS011;9676;50.916;13.352;2023-03-25T11:41:22;8.87;;;8.27;;
19087;SDS011;9676;50.916;13.352;2023-03-25T11:44:19;8.93;;;8.20;;
19087;SDS011;9676;50.916;13.352;2023-03-25T11:47:20;8.90;;;8.20;;
19087;SDS011;9676;50.916;13.352;2023-03-25T11:50:20;8.80;;;8.20;;
19087;SDS011;9676;50.916;13.352;2023-03-25T11:53:13;9.00;;;8.30;;
19087;SDS011;9676;50.916;13.352;2023-03-25T11:56:05;9.00;;;8.30;;
19087;SDS011;9676;50.916;13.352;2023-03-25T11:59:00;9.00;;;8.30;;
19087;SDS011;9676;50.916;13.352;2023-03-25T12:01:51;8.90;;;8.30;;
19087;SDS011;9676;50.916;13.352;2023-03-25T12:04:56;8.70;;;8.10;;
19087;SDS011;9676;50.916;13.352;2023-03-25T12:07:49;8.83;;;8.23;;
19087;SDS011;9676;50.916;13.352;2023-03-25T12:10:51;8.60;;;8.00;;
19087;SDS011;9676;50.916;13.352;2023-03-25T12:13:47;9.10;;;8.40;;
19087;SDS011;9676;50.916;13.352;2023-03-25T12:16:59;8.70;;;8.10;;
19087;SDS011;9676;50.916;13.352;2023-03-25T12:19:56;8.80;;;8.20;;
19087;SDS011;9676;50.916;13.352;2023-03-25T12:22:59;9.10;;;8.40;;
19087;SDS011;9676;50.916;13.352;2023-03-25T12:25:53;8.80;;;8.10;;
19087;SDS011;9676;50.916;13.352;2023-03-25T12:28:57;9.20;;;8.43;;
19087;SDS011;9676;50.916;13.352;2023-03-25T12:32:12;8.80;;;8.20;;
19087;SDS011;9676;50.916;13.352;2023-03-25T12:38:30;8.70;;;8.10;;
19087;SDS011;9676;50.916;13.352;2023-03-25T12:41:32;9.13;;;8.43;;
19087;SDS011;9676;50.916;13.352;2023-03-25T12:44:33;8.70;;;8.10;;
19087;SDS011;9676;50.916;13.352;2023-03-25T12:47:35;8.90;;;8.30;;
19087;SDS011;9676;50.916;13.352;2023-03-25T12:50:36;9.07;;;8.47;;
19087;SDS011;9676;50.916;13.352;2023-03-25T12:53:38;8.70;;;8.10;;
19087;SDS011;9676;50.916;13.352;2023-03-25T12:56:43;8.70;;;8.10;;
19087;SDS011;9676;50.916;13.352;2023-03-25T12:59:47;8.70;;;8.10;;
19087;SDS011;9676;50.916;13.352;2023-03-25T13:06:57;8.70;;;8.10;;
19087;SDS011;9676;50.916;13.352;2023-03-25T13:09:52;8.87;;;8.23;;
19087;SDS011;9676;50.916;13.352;2023-03-25T13:12:48;9.20;;;8.50;;
19087;SDS011;9676;50.916;13.352;2023-03-25T13:15:42;9.17;;;8.47;;
19087;SDS011;9676;50.916;13.352;2023-03-25T13:18:38;9.03;;;8.33;;
19087;SDS011;9676;50.916;13.352;2023-03-25T13:21:34;9.20;;;8.40;;
19087;SDS011;9676;50.916;13.352;2023-03-25T13:24:27;9.10;;;8.33;;
19087;SDS011;9676;50.916;13.352;2023-03-25T13:27:28;9.23;;;8.43;;
19087;SDS011;9676;50.916;13.352;2023-03-25T13:30:24;9.23;;;8.53;;
19087;SDS011;9676;50.916;13.352;2023-03-25T13:33:22;8.83;;;8.23;;
19087;SDS011;9676;50.916;13.352;2023-03-25T13:36:16;9.20;;;8.50;;
19087;SDS011;9676;50.916;13.352;2023-03-25T13:39:15;9.30;;;8.60;;
19087;SDS011;9676;50.916;13.352;2023-03-25T13:42:11;9.17;;;8.47;;
19087;SDS011;9676;50.916;13.352;2023-03-25T13:45:05;9.00;;;8.30;;
19087;SDS011;9676;50.916;13.352;2023-03-25T13:48:04;8.83;;;8.20;;
19087;SDS011;9676;50.916;13.352;2023-03-25T13:51:01;9.17;;;8.40;;
19087;SDS011;9676;50.916;13.352;2023-03-25T13:53:53;9.07;;;8.33;;
19087;SDS011;9676;50.916;13.352;2023-03-25T13:56:58;9.37;;;8.53;;
19087;SDS011;9676;50.916;13.352;2023-03-25T14:03:34;9.20;;;8.40;;
19087;SDS011;9676;50.916;13.352;2023-03-25T14:07:30;9.10;;;8.40;;
19087;SDS011;9676;50.916;13.352;2023-03-25T14:10:49;9.00;;;8.30;;
19087;SDS011;9676;50.916;13.352;2023-03-25T14:13:42;9.57;;;8.70;;
19087;SDS011;9676;50.916;13.352;2023-03-25T14:16:35;9.30;;;8.50;;
19087;SDS011;9676;50.916;13.352;2023-03-25T14:19:31;8.83;;;8.23;;
19087;SDS011;9676;50.916;13.352;2023-03-25T14:22:25;8.93;;;8.30;;
19087;SDS011;9676;50.916;13.352;2023-03-25T14:25:26;9.10;;;8.40;;
19087;SDS011;9676;50.916;13.352;2023-03-25T14:28:30;9.00;;;8.40;;
19087;SDS011;9676;50.916;13.352;2023-03-25T14:31:24;9.00;;;8.40;;
19087;SDS011;9676;50.916;13.352;2023-03-25T14:34:23;9.40;;;8.60;;
19087;SDS011;9676;50.916;13.352;2023-03-25T14:37:24;8.80;;;8.20;;
19087;SDS011;9676;50.916;13.352;2023-03-25T14:43:51;8.90;;;8.30;;
19087;SDS011;9676;50.916;13.352;2023-03-25T14:46:59;9.00;;;8.40;;
19087;SDS011;9676;50.916;13.352;2023-03-25T14:50:04;9.30;;;8.60;;
19087;SDS011;9676;50.916;13.352;2023-03-25T14:53:17;8.50;;;8.00;;
19087;SDS011;9676;50.916;13.352;2023-03-25T14:56:11;9.63;;;8.87;;
19087;SDS011;9676;50.916;13.352;2023-03-25T14:59:07;9.33;;;8.60;;
19087;SDS011;9676;50.916;13.352;2023-03-25T15:02:02;9.57;;;8.77;;
19087;SDS011;9676;50.916;13.352;2023-03-25T15:04:59;9.10;;;8.40;;
19087;SDS011;9676;50.916;13.352;2023-03-25T15:08:09;8.87;;;8.30;;
19087;SDS011;9676;50.916;13.352;2023-03-25T15:11:03;11.90;;;8.60;;
19087;SDS011;9676;50.916;13.352;2023-03-25T15:13:58;9.23;;;8.50;;
19087;SDS011;9676;50.916;13.352;2023-03-25T15:16:59;8.93;;;8.23;;
19087;SDS011;9676;50.916;13.352;2023-03-25T15:20:12;9.40;;;8.70;;
19087;SDS011;9676;50.916;13.352;2023-03-25T15:23:28;9.20;;;8.50;;
19087;SDS011;9676;50.916;13.352;2023-03-25T15:26:26;9.23;;;8.50;;
19087;SDS011;9676;50.916;13.352;2023-03-25T15:29:22;9.63;;;8.87;;
19087;SDS011;9676;50.916;13.352;2023-03-25T15:32:35;8.97;;;8.37;;
19087;SDS011;9676;50.916;13.352;2023-03-25T15:38:57;9.20;;;8.40;;
19087;SDS011;9676;50.916;13.352;2023-03-25T15:42:10;9.10;;;8.50;;
19087;SDS011;9676;50.916;13.352;2023-03-25T15:45:40;9.00;;;8.40;;
19087;SDS011;9676;50.916;13.352;2023-03-25T15:49:22;9.23;;;8.53;;
19087;SDS011;9676;50.916;13.352;2023-03-25T15:52:51;9.10;;;8.50;;
19087;SDS011;9676;50.916;13.352;2023-03-25T15:55:58;9.40;;;8.70;;
19087;SDS011;9676;50.916;13.352;2023-03-25T15:58:57;9.40;;;8.70;;
19087;SDS011;9676;50.916;13.352;2023-03-25T16:01:52;9.77;;;8.97;;
19087;SDS011;9676;50.916;13.352;2023-03-25T16:04:43;9.10;;;8.40;;
19087;SDS011;9676;50.916;13.352;2023-03-25T16:07:35;9.33;;;8.63;;
19087;SDS011;9676;50.916;13.352;2023-03-25T16:10:26;9.17;;;8.57;;
19087;SDS011;9676;50.916;13.352;2023-03-25T16:13:21;9.37;;;8.67;;
19087;SDS011;9676;50.916;13.352;2023-03-25T16:16:13;9.37;;;8.57;;
19087;SDS011;9676;50.916;13.352;2023-03-25T16:19:07;9.43;;;8.73;;
19087;SDS011;9676;50.916;13.352;2023-03-25T16:22:02;9.63;;;8.83;;
19087;SDS011;9676;50.916;13.352;2023-03-25T16:25:01;8.97;;;8.33;;
19087;SDS011;9676;50.916;13.352;2023-03-25T16:27:55;9.50;;;8.70;;
19087;SDS011;9676;50.916;13.352;2023-03-25T16:30:47;9.20;;;8.50;;
19087;SDS011;9676;50.916;13.352;2023-03-25T16:33:41;9.20;;;8.60;;
19087;SDS011;9676;50.916;13.352;2023-03-25T16:36:32;9.57;;;8.77;;
19087;SDS011;9676;50.916;13.352;2023-03-25T16:39:22;9.47;;;8.77;;
19087;SDS011;9676;50.916;13.352;2023-03-25T16:42:14;9.50;;;8.80;;
19087;SDS011;9676;50.916;13.352;2023-03-25T16:45:09;9.60;;;8.80;;
19087;SDS011;9676;50.916;13.352;2023-03-25T16:48:04;9.40;;;8.70;;
19087;SDS011;9676;50.916;13.352;2023-03-25T16:50:58;9.43;;;8.73;;
19087;SDS011;9676;50.916;13.352;2023-03-25T16:53:54;9.60;;;8.90;;
19087;SDS011;9676;50.916;13.352;2023-03-25T16:56:45;9.83;;;8.93;;
19087;SDS011;9676;50.916;13.352;2023-03-25T16:59:36;9.63;;;8.83;;
19087;SDS011;9676;50.916;13.352;2023-03-25T17:02:26;9.87;;;9.07;;
19087;SDS011;9676;50.916;13.352;2023-03-25T17:05:19;9.77;;;8.87;;
19087;SDS011;9676;50.916;13.352;2023-03-25T17:08:12;9.50;;;8.80;;
19087;SDS011;9676;50.916;13.352;2023-03-25T17:11:08;9.97;;;9.07;;
19087;SDS011;9676;50.916;13.352;2023-03-25T17:13:58;10.33;;;8.80;;
19087;SDS011;9676;50.916;13.352;2023-03-25T17:16:53;9.63;;;8.87;;
19087;SDS011;9676;50.916;13.352;2023-03-25T17:19:43;9.33;;;8.60;;
19087;SDS011;9676;50.916;13.352;2023-03-25T17:22:36;9.40;;;8.70;;
19087;SDS011;9676;50.916;13.352;2023-03-25T17:25:28;9.70;;;9.00;;
19087;SDS011;9676;50.916;13.352;2023-03-25T17:28:24;9.50;;;8.80;;
19087;SDS011;9676;50.916;13.352;2023-03-25T17:31:24;9.60;;;8.90;;
19087;SDS011;9676;50.916;13.352;2023-03-25T17:34:20;9.40;;;8.70;;
19087;SDS011;9676;50.916;13.352;2023-03-25T17:37:11;9.50;;;8.80;;
19087;SDS011;9676;50.916;13.352;2023-03-25T17:40:03;9.10;;;8.50;;
19087;SDS011;9676;50.916;13.352;2023-03-25T17:42:59;9.53;;;8.77;;
19087;SDS011;9676;50.916;13.352;2023-03-25T17:45:48;9.57;;;8.87;;
19087;SDS011;9676;50.916;13.352;2023-03-25T17:48:38;9.60;;;8.80;;
19087;SDS011;9676;50.916;13.352;2023-03-25T17:51:28;9.60;;;8.90;;
19087;SDS011;9676;50.916;13.352;2023-03-25T17:54:18;9.47;;;8.77;;
19087;SDS011;9676;50.916;13.352;2023-03-25T17:57:09;9.40;;;8.70;;
19087;SDS011;9676;50.916;13.352;2023-03-25T18:00:08;9.67;;;8.90;;
19087;SDS011;9676;50.916;13.352;2023-03-25T18:03:07;9.87;;;9.07;;
19087;SDS011;9676;50.916;13.352;2023-03-25T18:05:58;9.43;;;8.73;;